createdAt,value
2022-09-04T00:05:08.298Z,17.65
2022-09-04T00:10:36.830Z,17.57
2022-09-04T00:15:44.908Z,17.48
2022-09-04T00:20:59.274Z,17.40
2022-09-04T00:26:42.297Z,17.31
2022-09-04T00:32:12.072Z,17.20
2022-09-04T00:37:16.681Z,17.12
2022-09-04T00:42:38.515Z,17.07
2022-09-04T00:48:06.406Z,17.04
2022-09-04T00:53:16.427Z,17.00
2022-09-04T00:58:55.424Z,16.91
2022-09-04T01:04:08.733Z,16.83
2022-09-04T01:09:37.964Z,16.81
2022-09-04T01:14:48.692Z,16.73
2022-09-04T01:20:16.837Z,16.68
2022-09-04T01:25:47.853Z,16.65
2022-09-04T01:31:04.564Z,16.56
2022-09-04T01:36:20.581Z,16.50
2022-09-04T01:41:44.562Z,16.44
2022-09-04T01:47:04.162Z,16.42
2022-09-04T01:52:09.991Z,16.35
2022-09-04T01:57:32.450Z,16.31
2022-09-04T02:03:03.014Z,16.27
2022-09-04T02:08:13.872Z,16.22
2022-09-04T02:13:23.900Z,16.18
2022-09-04T02:18:36.139Z,16.15
2022-09-04T02:24:16.992Z,16.14
2022-09-04T02:29:26.831Z,16.07
2022-09-04T02:34:40.549Z,16.03
2022-09-04T02:39:48.338Z,15.98
2022-09-04T02:44:57.398Z,15.94
2022-09-04T02:50:22.677Z,15.90
2022-09-04T02:55:35.277Z,15.88
2022-09-04T03:00:54.305Z,15.83
2022-09-04T03:06:03.892Z,15.78
2022-09-04T03:11:17.451Z,15.74
2022-09-04T03:16:28.428Z,15.68
2022-09-04T03:21:46.125Z,15.61
2022-09-04T03:27:02.177Z,15.58
2022-09-04T03:32:44.614Z,15.55
2022-09-04T03:38:08.214Z,15.50
2022-09-04T03:43:22.941Z,15.44
2022-09-04T03:48:47.230Z,15.39
2022-09-04T03:53:57.929Z,15.34
2022-09-04T03:59:06.676Z,15.30
2022-09-04T04:04:46.324Z,15.25
2022-09-04T04:10:22.314Z,15.18
2022-09-04T04:15:42.546Z,15.10
2022-09-04T04:21:10.894Z,15.09
2022-09-04T04:26:15.742Z,15.03
2022-09-04T04:32:07.014Z,14.99
2022-09-04T04:37:21.336Z,14.95
2022-09-04T04:42:35.730Z,14.89
2022-09-04T04:48:17.117Z,14.89
2022-09-04T04:53:35.970Z,14.90
2022-09-04T04:59:03.883Z,14.89
2022-09-04T05:04:36.564Z,14.88
2022-09-04T05:09:44.045Z,14.90
2022-09-04T05:14:54.616Z,14.91
2022-09-04T05:20:14.978Z,14.90
2022-09-04T05:25:21.780Z,14.95
2022-09-04T05:30:31.808Z,14.97
2022-09-04T05:35:48.855Z,14.97
2022-09-04T05:41:37.030Z,15.02
2022-09-04T05:47:01.867Z,15.08
2022-09-04T05:52:41.885Z,15.12
2022-09-04T05:58:02.719Z,15.11
2022-09-04T06:03:42.029Z,15.18
2022-09-04T06:09:09.537Z,15.25
2022-09-04T06:14:25.272Z,15.33
2022-09-04T06:19:57.913Z,15.48
2022-09-04T06:25:14.474Z,15.58
2022-09-04T06:30:17.878Z,15.74
2022-09-04T06:35:40.726Z,15.89
2022-09-04T06:40:56.497Z,16.04
2022-09-04T06:46:10.359Z,16.17
2022-09-04T06:51:46.028Z,16.30
2022-09-04T06:57:14.256Z,16.39
2022-09-04T07:02:46.989Z,16.30
2022-09-04T07:07:59.909Z,16.48
2022-09-04T07:13:23.511Z,16.57
2022-09-04T07:18:48.427Z,16.70
2022-09-04T07:24:31.168Z,16.79
2022-09-04T07:29:40.037Z,16.86
2022-09-04T07:35:27.065Z,17.15
2022-09-04T07:40:38.260Z,17.21
2022-09-04T07:45:51.521Z,17.33
2022-09-04T07:51:10.778Z,17.45
2022-09-04T07:56:28.864Z,17.54
2022-09-04T08:01:40.220Z,17.72
2022-09-04T08:06:50.283Z,17.91
2022-09-04T08:12:15.058Z,18.00
2022-09-04T08:17:43.181Z,18.14
2022-09-04T08:22:57.044Z,18.30
2022-09-04T08:28:21.529Z,18.49
2022-09-04T08:33:54.081Z,18.69
2022-09-04T08:39:07.478Z,18.80
2022-09-04T08:44:30.635Z,19.01
2022-09-04T08:50:01.866Z,19.19
2022-09-04T08:55:31.508Z,19.35
2022-09-04T09:00:42.945Z,19.49
2022-09-04T09:06:06.782Z,19.72
2022-09-04T09:11:48.003Z,19.91
2022-09-04T09:17:17.052Z,20.10
2022-09-04T09:22:47.543Z,20.27
2022-09-04T09:28:40.151Z,20.36
2022-09-04T09:34:25.159Z,20.62
2022-09-04T09:39:41.386Z,20.87
2022-09-04T09:45:06.319Z,21.10
2022-09-04T09:50:39.095Z,21.24
2022-09-04T09:56:03.389Z,21.45
2022-09-04T10:01:21.191Z,21.62
2022-09-04T10:07:10.391Z,21.86
2022-09-04T10:12:28.163Z,22.01
2022-09-04T10:17:53.156Z,22.16
2022-09-04T10:23:19.017Z,22.39
2022-09-04T10:29:11.241Z,22.62
2022-09-04T10:34:15.920Z,22.78
2022-09-04T10:39:48.701Z,22.90
2022-09-04T10:45:20.589Z,23.09
2022-09-04T10:50:35.433Z,23.20
2022-09-04T10:56:16.422Z,23.33
2022-09-04T11:01:45.333Z,23.49
2022-09-04T11:07:05.435Z,23.71
2022-09-04T11:12:25.076Z,23.92
2022-09-04T11:17:38.600Z,23.98
2022-09-04T11:23:01.907Z,24.35
2022-09-04T11:28:05.705Z,24.70
2022-09-04T11:33:52.670Z,24.88
2022-09-04T11:39:05.985Z,25.03
2022-09-04T11:44:24.997Z,25.20
2022-09-04T11:49:56.608Z,25.37
2022-09-04T11:55:23.422Z,25.45
2022-09-04T12:00:28.080Z,25.83
2022-09-04T12:05:39.695Z,26.15
2022-09-04T12:11:38.281Z,26.29
2022-09-04T12:17:15.562Z,26.56
2022-09-04T12:22:31.296Z,26.83
2022-09-04T12:28:00.655Z,27.12
2022-09-04T12:33:14.479Z,27.57
2022-09-04T12:39:01.421Z,27.88
2022-09-04T12:44:25.538Z,27.89
2022-09-04T12:49:52.109Z,27.76
2022-09-04T12:55:19.440Z,28.01
2022-09-04T13:00:36.937Z,28.37
2022-09-04T13:06:15.362Z,28.37
2022-09-04T13:11:43.803Z,28.19
2022-09-04T13:16:52.113Z,28.51
2022-09-04T13:22:26.511Z,28.91
2022-09-04T13:27:48.224Z,29.18
2022-09-04T13:32:49.879Z,29.34
2022-09-04T13:37:54.658Z,29.48
2022-09-04T13:43:21.084Z,29.77
2022-09-04T13:48:22.819Z,30.09
2022-09-04T13:53:29.225Z,30.55
2022-09-04T13:58:39.486Z,31.12
2022-09-04T14:03:56.280Z,31.44
2022-09-04T14:09:05.154Z,31.68
2022-09-04T14:14:35.175Z,31.76
2022-09-04T14:19:46.266Z,31.84
2022-09-04T14:25:16.085Z,31.89
2022-09-04T14:30:27.204Z,32.10
2022-09-04T14:36:10.124Z,32.73
2022-09-04T14:41:31.402Z,33.24
2022-09-04T14:47:03.345Z,33.69
2022-09-04T14:52:19.661Z,33.76
2022-09-04T14:57:38.668Z,33.78
2022-09-04T15:02:55.024Z,33.80
2022-09-04T15:08:07.498Z,33.82
2022-09-04T15:13:27.259Z,33.79
2022-09-04T15:18:42.086Z,34.28
2022-09-04T15:24:17.810Z,34.63
2022-09-04T15:29:27.886Z,34.79
2022-09-04T15:34:32.269Z,34.80
2022-09-04T15:39:40.202Z,34.78
2022-09-04T15:44:46.584Z,34.49
2022-09-04T15:50:01.205Z,34.29
2022-09-04T15:55:22.902Z,34.11
2022-09-04T16:00:27.318Z,33.68
2022-09-04T16:05:41.904Z,32.81
2022-09-04T16:11:12.355Z,31.77
2022-09-04T16:16:19.195Z,31.00
2022-09-04T16:21:47.660Z,30.38
2022-09-04T16:26:55.881Z,29.93
2022-09-04T16:32:03.890Z,29.60
2022-09-04T16:37:21.139Z,29.17
2022-09-04T16:42:38.082Z,28.83
2022-09-04T16:47:56.667Z,28.52
2022-09-04T16:53:19.059Z,28.21
2022-09-04T16:58:35.292Z,27.85
2022-09-04T17:04:13.799Z,27.63
2022-09-04T17:09:34.875Z,27.35
2022-09-04T17:14:40.909Z,27.13
2022-09-04T17:19:43.686Z,27.45
2022-09-04T17:29:13.156Z,26.82
2022-09-04T17:30:44.158Z,26.54
2022-09-04T17:40:36.393Z,26.25
2022-09-04T17:41:53.029Z,25.99
2022-09-04T17:47:04.589Z,25.70
2022-09-04T17:52:08.847Z,25.61
2022-09-04T17:57:46.870Z,25.73
2022-09-04T18:02:50.004Z,25.79
2022-09-04T18:08:07.472Z,25.11
2022-09-04T18:13:38.675Z,24.85
2022-09-04T18:18:47.283Z,24.60
2022-09-04T18:23:54.780Z,24.50
2022-09-04T18:31:42.958Z,24.32
2022-09-04T18:37:22.079Z,24.20
2022-09-04T18:40:28.049Z,24.07
2022-09-04T18:50:30.451Z,23.89
2022-09-04T18:51:22.203Z,23.85
2022-09-04T18:56:36.854Z,23.75
2022-09-04T19:01:43.378Z,23.63
2022-09-04T19:07:14.892Z,23.54
2022-09-04T19:12:21.530Z,23.46
2022-09-04T19:17:31.899Z,23.42
2022-09-04T19:22:47.061Z,23.33
2022-09-04T19:28:17.245Z,23.21
2022-09-04T19:33:39.513Z,23.11
2022-09-04T19:45:53.809Z,23.06
2022-09-04T19:46:06.218Z,22.98
2022-09-04T19:53:20.165Z,22.84
2022-09-04T19:55:24.821Z,22.72
2022-09-04T20:00:42.411Z,22.60
2022-09-04T20:05:57.855Z,22.55
2022-09-04T20:11:28.645Z,22.64
2022-09-04T20:17:13.521Z,22.54
2022-09-04T20:22:35.429Z,22.42
2022-09-04T20:27:49.161Z,22.29
2022-09-04T20:33:02.040Z,22.17
2022-09-04T20:38:22.903Z,22.08
2022-09-04T20:43:46.353Z,21.95
2022-09-04T20:52:58.244Z,21.85
2022-09-04T20:54:33.529Z,21.74
2022-09-04T21:03:09.328Z,21.64
2022-09-04T21:05:46.222Z,21.54
2022-09-04T21:10:56.533Z,21.39
2022-09-04T21:16:27.228Z,21.30
2022-09-04T21:22:08.235Z,21.18
2022-09-04T21:27:54.693Z,21.07
2022-09-04T21:33:24.600Z,21.03
2022-09-04T21:38:56.969Z,20.96
2022-09-04T21:44:34.962Z,20.89
2022-09-04T21:50:00.370Z,20.76
2022-09-04T21:57:20.778Z,20.63
2022-09-04T22:02:42.252Z,20.55
2022-09-04T22:08:34.583Z,20.46
2022-09-04T22:13:46.655Z,20.37
2022-09-04T22:18:23.265Z,20.25
2022-09-04T22:23:58.598Z,20.17
2022-09-04T22:29:41.913Z,20.14
2022-09-04T22:35:03.774Z,19.98
2022-09-04T22:40:20.485Z,19.93
2022-09-04T22:45:36.056Z,19.85
2022-09-04T22:51:05.394Z,19.79
2022-09-04T22:56:22.995Z,19.70
2022-09-04T23:02:35.226Z,19.64
2022-09-04T23:11:30.392Z,19.52
2022-09-04T23:14:05.249Z,19.46
2022-09-04T23:26:31.497Z,19.46
2022-09-04T23:26:49.409Z,19.31
2022-09-04T23:31:29.098Z,19.23
2022-09-04T23:36:33.827Z,19.14
2022-09-04T23:41:52.957Z,19.09
2022-09-04T23:47:48.612Z,19.06
2022-09-04T23:53:12.191Z,19.04
2022-09-04T23:58:57.552Z,18.97
